Time;durP1;ratioP1;P1;durP2;ratioP2;P2;SDS_P1;SDS_P2;PMS_P1;PMS_P2;Temp;Humidity;BMP_temperature;BMP_pressure;BME280_temperature;BME280_humidity;BME280_pressure;Samples;Min_cycle;Max_cycle;Signal;HPM_P1;HPM_P2
2023/03/20 00:01:12;;;;;;;19.50;15.60;;;11.90;99.90;;;;;;5052850;28;20444;-83
2023/03/20 00:03:39;;;;;;;20.63;14.87;;;11.90;99.90;;;;;;5049404;28;20480;-85
2023/03/20 00:06:18;;;;;;;18.90;14.13;;;11.90;99.90;;;;;;5054258;28;20428;-83
2023/03/20 00:08:47;;;;;;;21.43;15.30;;;11.90;99.90;;;;;;5049830;28;20483;-83
2023/03/20 00:11:27;;;;;;;17.20;13.50;;;12.00;99.90;;;;;;5052687;28;20460;-83
2023/03/20 00:13:57;;;;;;;18.30;14.20;;;11.90;99.90;;;;;;5054585;28;20470;-83
2023/03/20 00:16:29;;;;;;;16.97;12.67;;;12.00;99.90;;;;;;5050660;28;20456;-83
2023/03/20 00:18:57;;;;;;;17.00;14.37;;;12.00;99.90;;;;;;5045241;28;20530;-82
2023/03/20 00:21:24;;;;;;;20.83;14.23;;;12.00;99.90;;;;;;5045850;28;20531;-83
2023/03/20 00:23:52;;;;;;;19.77;13.60;;;12.00;99.90;;;;;;5047014;28;20536;-83
2023/03/20 00:26:27;;;;;;;18.60;12.97;;;12.00;99.90;;;;;;5044816;28;20503;-82
2023/03/20 00:28:55;;;;;;;18.00;12.90;;;11.90;99.90;;;;;;5045650;28;20460;-82
2023/03/20 00:31:28;;;;;;;14.63;13.00;;;11.90;99.90;;;;;;5050649;28;20527;-83
2023/03/20 00:34:09;;;;;;;17.57;12.83;;;11.90;99.90;;;;;;5048551;28;21167;-83
2023/03/20 00:36:35;;;;;;;15.67;13.17;;;11.90;99.90;;;;;;5065694;28;20969;-83
2023/03/20 00:39:03;;;;;;;18.37;13.43;;;12.00;99.90;;;;;;5064855;28;21057;-84
2023/03/20 00:41:45;;;;;;;18.77;13.97;;;11.90;99.90;;;;;;5068139;28;20551;-83
2023/03/20 00:44:26;;;;;;;16.00;13.10;;;11.90;99.90;;;;;;5065464;28;20475;-83
2023/03/20 00:47:21;;;;;;;16.27;14.23;;;11.90;99.90;;;;;;5066752;28;20455;-83
2023/03/20 00:49:50;;;;;;;17.47;13.90;;;12.00;99.90;;;;;;5058147;28;20488;-83
2023/03/20 00:52:18;;;;;;;17.30;12.40;;;12.00;99.90;;;;;;5066615;28;20461;-82
2023/03/20 00:54:45;;;;;;;18.80;14.47;;;11.90;99.90;;;;;;5067129;28;20524;-82
2023/03/20 00:57:21;;;;;;;19.27;15.07;;;11.80;99.90;;;;;;5071227;28;20462;-81
2023/03/20 01:00:08;;;;;;;19.10;14.70;;;11.70;99.90;;;;;;5068317;28;21392;-83
2023/03/20 01:02:34;;;;;;;19.33;14.80;;;11.70;99.90;;;;;;5070340;28;20476;-83
2023/03/20 01:05:04;;;;;;;20.53;15.17;;;11.90;99.90;;;;;;5069241;28;20448;-83
2023/03/20 01:07:30;;;;;;;25.43;16.60;;;11.90;99.90;;;;;;5068383;28;20497;-82
2023/03/20 01:09:57;;;;;;;21.70;16.40;;;11.90;99.90;;;;;;5065103;28;20475;-83
2023/03/20 01:12:24;;;;;;;18.47;14.73;;;11.80;99.90;;;;;;5058486;28;20459;-83
2023/03/20 01:14:54;;;;;;;20.17;15.73;;;11.80;99.90;;;;;;5070536;28;20843;-83
2023/03/20 01:17:22;;;;;;;22.97;15.87;;;11.80;99.90;;;;;;5074406;28;20526;-82
2023/03/20 01:19:49;;;;;;;24.60;16.30;;;11.80;99.90;;;;;;5083985;28;20452;-82
2023/03/20 01:22:18;;;;;;;22.20;14.87;;;11.70;99.90;;;;;;5080420;28;20478;-81
2023/03/20 01:24:46;;;;;;;18.70;15.47;;;11.70;99.90;;;;;;5085946;28;20453;-82
2023/03/20 01:27:17;;;;;;;19.97;15.03;;;11.70;99.90;;;;;;5086386;28;20543;-83
2023/03/20 01:29:45;;;;;;;19.77;14.20;;;11.70;99.90;;;;;;5060515;28;20469;-81
2023/03/20 01:32:14;;;;;;;19.40;14.93;;;11.80;99.90;;;;;;5067264;28;20454;-82
2023/03/20 01:34:41;;;;;;;18.97;14.90;;;11.80;99.90;;;;;;5066876;28;20447;-82
2023/03/20 01:37:22;;;;;;;19.97;14.67;;;11.70;99.90;;;;;;5066711;28;20522;-82
2023/03/20 01:39:49;;;;;;;19.57;14.73;;;11.60;99.90;;;;;;5069437;28;20499;-83
2023/03/20 01:42:16;;;;;;;20.80;15.57;;;11.70;99.90;;;;;;5065078;28;20459;-83
2023/03/20 01:44:42;;;;;;;17.53;13.70;;;11.70;99.90;;;;;;5063851;28;20499;-82
2023/03/20 01:47:22;;;;;;;17.90;13.93;;;11.70;99.90;;;;;;5067311;28;20455;-83
2023/03/20 01:50:17;;;;;;;17.60;13.60;;;11.70;99.90;;;;;;5073475;28;20486;-83
2023/03/20 01:52:47;;;;;;;19.10;14.10;;;11.70;99.90;;;;;;5069945;28;20460;-83
2023/03/20 01:55:14;;;;;;;19.23;13.93;;;11.60;99.90;;;;;;5068857;28;20517;-82
2023/03/20 01:57:41;;;;;;;18.40;13.70;;;11.70;99.90;;;;;;5067643;28;20459;-80
2023/03/20 02:00:15;;;;;;;16.30;12.60;;;11.60;99.90;;;;;;5079306;28;20907;-82
2023/03/20 02:02:45;;;;;;;19.93;14.47;;;11.60;99.90;;;;;;5074788;28;20496;-80
2023/03/20 02:05:14;;;;;;;22.30;14.40;;;11.60;99.90;;;;;;5082911;28;20460;-80
2023/03/20 02:07:48;;;;;;;20.03;13.43;;;11.60;99.90;;;;;;5089025;28;20449;-79
2023/03/20 02:10:19;;;;;;;15.53;12.80;;;11.60;99.90;;;;;;5087053;28;20525;-79
2023/03/20 02:12:47;;;;;;;16.07;12.30;;;11.60;99.90;;;;;;5089236;28;20455;-80
2023/03/20 02:15:15;;;;;;;18.97;13.60;;;11.60;99.90;;;;;;5081296;28;20436;-81
2023/03/20 02:17:43;;;;;;;15.47;11.33;;;11.60;99.90;;;;;;5096660;28;20478;-81
2023/03/20 02:20:42;;;;;;;14.50;12.03;;;11.50;99.90;;;;;;5088341;28;20510;-83
2023/03/20 02:23:48;;;;;;;18.67;13.43;;;11.50;99.90;;;;;;5089719;28;20467;-83
2023/03/20 02:26:28;;;;;;;19.70;13.70;;;11.50;99.90;;;;;;5089505;28;20527;-83
2023/03/20 02:29:27;;;;;;;18.93;13.20;;;11.50;99.90;;;;;;5085549;28;20460;-83
2023/03/20 02:32:07;;;;;;;16.60;12.20;;;11.50;99.90;;;;;;5100377;28;20444;-82
2023/03/20 02:35:10;;;;;;;16.60;11.63;;;11.40;99.90;;;;;;5083040;28;20483;-82
2023/03/20 02:38:05;;;;;;;18.13;12.77;;;11.40;99.90;;;;;;5052132;28;20439;-82
2023/03/20 02:41:03;;;;;;;17.93;11.80;;;11.40;99.90;;;;;;5078195;28;20484;-83
2023/03/20 02:43:50;;;;;;;15.03;11.53;;;11.40;99.90;;;;;;5069435;28;20475;-83
2023/03/20 02:46:41;;;;;;;17.33;11.90;;;11.40;99.90;;;;;;5054745;28;20506;-82
2023/03/20 02:49:17;;;;;;;18.40;13.30;;;11.30;99.90;;;;;;5084299;28;20462;-83
2023/03/20 02:51:53;;;;;;;19.10;13.90;;;11.30;99.90;;;;;;5077717;28;20443;-83
2023/03/20 02:54:23;;;;;;;19.67;11.97;;;11.30;99.90;;;;;;5062760;28;20463;-83
2023/03/20 02:57:16;;;;;;;15.73;12.03;;;11.30;99.90;;;;;;5067060;28;20474;-81
2023/03/20 02:59:58;;;;;;;14.97;12.20;;;11.40;99.90;;;;;;5068588;28;20487;-82
2023/03/20 03:02:36;;;;;;;17.23;12.47;;;11.30;99.90;;;;;;5066246;28;20546;-81
2023/03/20 03:05:13;;;;;;;21.30;14.07;;;11.30;99.90;;;;;;5065524;28;20461;-83
2023/03/20 03:07:45;;;;;;;16.67;12.77;;;11.30;99.90;;;;;;5068161;28;20950;-83
2023/03/20 03:10:40;;;;;;;17.23;12.50;;;11.30;99.90;;;;;;5069039;28;20475;-84
2023/03/20 03:13:13;;;;;;;16.93;13.17;;;11.30;99.90;;;;;;5060711;28;20468;-83
2023/03/20 03:15:44;;;;;;;14.87;12.23;;;11.30;99.90;;;;;;5069914;28;20466;-82
2023/03/20 03:18:16;;;;;;;19.70;13.47;;;11.20;99.90;;;;;;5074450;28;20448;-82
2023/03/20 03:20:45;;;;;;;13.97;11.27;;;11.20;99.90;;;;;;5067914;28;20533;-83
2023/03/20 03:23:28;;;;;;;19.07;12.87;;;11.30;99.90;;;;;;5070859;28;20511;-83
2023/03/20 03:25:57;;;;;;;17.20;12.83;;;11.30;99.90;;;;;;5061210;28;20493;-83
2023/03/20 03:28:46;;;;;;;16.30;12.50;;;11.30;99.90;;;;;;5064494;28;20528;-83
2023/03/20 03:31:16;;;;;;;16.27;11.97;;;11.30;99.90;;;;;;5065188;28;20452;-83
2023/03/20 03:33:49;;;;;;;18.13;13.23;;;11.30;99.90;;;;;;5072795;28;20511;-83
2023/03/20 03:36:51;;;;;;;17.60;13.03;;;11.40;99.90;;;;;;5067279;28;20467;-83
2023/03/20 03:39:38;;;;;;;19.40;12.80;;;11.40;99.90;;;;;;5029942;28;20509;-84
2023/03/20 03:42:13;;;;;;;19.60;13.33;;;11.40;99.90;;;;;;5064097;28;20459;-83
2023/03/20 03:44:40;;;;;;;20.13;14.40;;;11.80;99.90;;;;;;5063652;28;20836;-84
2023/03/20 03:47:14;;;;;;;17.13;13.57;;;12.00;99.40;;;;;;5065617;28;20462;-84
2023/03/20 03:49:46;;;;;;;20.43;13.10;;;11.70;99.20;;;;;;5072517;28;20508;-82
2023/03/20 03:52:20;;;;;;;18.70;14.00;;;11.80;99.50;;;;;;5067680;28;20509;-83
2023/03/20 03:54:56;;;;;;;20.77;13.27;;;11.80;99.50;;;;;;5068991;28;20443;-83
2023/03/20 03:57:45;;;;;;;17.40;12.40;;;11.80;99.30;;;;;;5069813;28;20501;-82
2023/03/20 04:00:17;;;;;;;17.17;12.60;;;11.50;99.50;;;;;;5068684;28;20482;-83
2023/03/20 04:02:48;;;;;;;17.80;11.70;;;11.30;99.90;;;;;;5070598;28;20489;-82
2023/03/20 04:05:16;;;;;;;16.60;12.47;;;11.30;99.90;;;;;;5065610;28;20478;-84
2023/03/20 04:07:45;;;;;;;18.47;12.43;;;11.20;99.90;;;;;;5072547;28;20455;-82
2023/03/20 04:10:13;;;;;;;19.00;12.07;;;11.20;99.90;;;;;;5065445;28;20475;-83
2023/03/20 04:12:44;;;;;;;17.07;11.37;;;11.20;99.90;;;;;;5070299;28;20455;-83
2023/03/20 04:15:13;;;;;;;16.47;12.43;;;11.10;99.90;;;;;;5068021;28;20467;-82
2023/03/20 04:17:40;;;;;;;15.30;11.53;;;11.10;99.90;;;;;;5065118;28;20890;-83
2023/03/20 04:20:07;;;;;;;17.37;12.33;;;11.10;99.90;;;;;;5068421;28;20479;-83
2023/03/20 04:22:34;;;;;;;15.53;10.33;;;11.10;99.90;;;;;;5069075;28;20480;-82
2023/03/20 04:25:06;;;;;;;14.83;10.90;;;11.00;99.90;;;;;;5066478;28;20545;-82
2023/03/20 04:27:33;;;;;;;16.57;10.43;;;11.00;99.90;;;;;;5067257;28;20956;-83
2023/03/20 04:30:00;;;;;;;16.23;11.60;;;10.90;99.90;;;;;;5068641;28;20494;-83
2023/03/20 04:32:27;;;;;;;13.57;9.50;;;10.90;99.90;;;;;;5066366;28;20467;-82
2023/03/20 04:34:53;;;;;;;15.10;10.80;;;11.00;99.90;;;;;;5066240;28;20469;-82
2023/03/20 04:37:20;;;;;;;13.03;10.10;;;10.90;99.90;;;;;;5070120;28;20455;-81
2023/03/20 04:39:47;;;;;;;13.80;10.60;;;10.90;99.90;;;;;;5068771;28;20479;-83
2023/03/20 04:42:14;;;;;;;14.53;10.10;;;10.90;99.90;;;;;;5069689;28;20447;-84
2023/03/20 04:44:41;;;;;;;15.57;10.37;;;10.80;99.90;;;;;;5061985;28;20500;-84
2023/03/20 04:47:07;;;;;;;15.80;10.07;;;10.80;99.90;;;;;;5078276;28;20423;-85
2023/03/20 04:49:34;;;;;;;14.57;9.03;;;10.80;99.90;;;;;;5088376;28;20511;-84
2023/03/20 04:52:01;;;;;;;14.87;10.27;;;10.80;99.90;;;;;;5087457;28;20443;-84
2023/03/20 04:54:28;;;;;;;12.70;9.30;;;10.80;99.90;;;;;;5093503;28;20483;-82
2023/03/20 04:56:54;;;;;;;12.90;9.23;;;10.80;99.90;;;;;;5095313;28;20440;-82
2023/03/20 04:59:21;;;;;;;14.87;9.60;;;10.70;99.90;;;;;;5080057;28;20483;-83
2023/03/20 05:01:47;;;;;;;11.43;9.20;;;10.70;99.90;;;;;;5075348;28;20517;-83
2023/03/20 05:04:14;;;;;;;13.97;9.10;;;10.70;99.90;;;;;;5068608;28;20507;-83
2023/03/20 05:06:42;;;;;;;13.40;9.47;;;10.70;99.90;;;;;;5070781;28;20496;-84
2023/03/20 05:09:09;;;;;;;11.67;9.07;;;10.70;99.90;;;;;;5070706;28;20478;-84
2023/03/20 05:11:36;;;;;;;12.23;9.47;;;10.70;99.90;;;;;;5078962;28;21200;-82
2023/03/20 05:14:03;;;;;;;12.90;8.93;;;10.70;99.90;;;;;;5063280;28;20468;-81
2023/03/20 05:16:30;;;;;;;12.80;9.80;;;10.60;99.90;;;;;;5069460;28;20516;-81
2023/03/20 05:18:57;;;;;;;12.53;8.90;;;10.60;99.90;;;;;;5070517;28;20461;-83
2023/03/20 05:21:23;;;;;;;12.53;8.13;;;10.60;99.90;;;;;;5081396;28;20479;-83
2023/03/20 05:23:50;;;;;;;15.07;9.90;;;10.60;99.90;;;;;;5076163;28;20478;-83
2023/03/20 05:26:17;;;;;;;12.43;8.90;;;10.60;99.90;;;;;;5071822;28;20455;-83
2023/03/20 05:28:44;;;;;;;11.80;8.63;;;10.50;99.90;;;;;;5071949;28;20909;-83
2023/03/20 05:31:10;;;;;;;10.57;8.27;;;10.50;99.90;;;;;;5072057;28;21065;-83
2023/03/20 05:33:40;;;;;;;12.60;9.20;;;10.50;99.90;;;;;;5071261;28;20490;-82
2023/03/20 05:36:07;;;;;;;12.67;8.10;;;10.50;99.90;;;;;;5069497;28;20452;-82
2023/03/20 05:38:34;;;;;;;13.40;9.20;;;10.50;99.90;;;;;;5073370;28;20458;-83
2023/03/20 05:41:02;;;;;;;13.10;9.03;;;10.40;99.90;;;;;;5071869;28;21021;-83
2023/03/20 05:43:29;;;;;;;13.60;8.40;;;10.40;99.90;;;;;;5071604;28;20873;-82
2023/03/20 05:45:55;;;;;;;13.20;9.10;;;10.40;99.90;;;;;;5069941;28;20513;-83
2023/03/20 05:48:23;;;;;;;14.77;9.63;;;10.40;99.90;;;;;;5071632;28;20547;-83
2023/03/20 05:50:50;;;;;;;12.73;9.20;;;10.40;99.90;;;;;;5070365;28;20463;-83
2023/03/20 05:53:17;;;;;;;12.50;9.10;;;10.50;99.90;;;;;;5070607;28;20475;-82
2023/03/20 05:55:44;;;;;;;11.67;8.50;;;10.40;99.90;;;;;;5069991;28;20465;-83
2023/03/20 05:58:11;;;;;;;14.40;9.70;;;10.50;99.90;;;;;;5070368;28;20497;-83
2023/03/20 06:00:38;;;;;;;13.50;10.60;;;10.50;99.90;;;;;;5073707;28;20495;-84
2023/03/20 06:03:08;;;;;;;13.10;9.17;;;10.50;99.90;;;;;;5069432;28;20451;-83
2023/03/20 06:05:35;;;;;;;14.03;9.90;;;10.50;99.90;;;;;;5076694;28;20480;-83
2023/03/20 06:08:03;;;;;;;16.37;10.40;;;10.50;99.90;;;;;;5091533;28;20480;-83
2023/03/20 06:10:30;;;;;;;14.80;9.77;;;10.60;99.90;;;;;;5091474;28;20462;-84
2023/03/20 06:12:59;;;;;;;12.53;10.50;;;10.60;99.90;;;;;;5091305;28;20899;-80
2023/03/20 06:15:27;;;;;;;18.60;12.50;;;10.60;99.90;;;;;;5078729;28;20455;-82
2023/03/20 06:17:55;;;;;;;15.17;9.97;;;10.50;99.90;;;;;;5078351;28;20458;-84
2023/03/20 06:20:22;;;;;;;13.40;9.80;;;10.50;99.90;;;;;;5076464;28;20475;-85
2023/03/20 06:22:49;;;;;;;15.50;11.70;;;10.50;99.90;;;;;;5070469;28;20493;-82
2023/03/20 06:25:15;;;;;;;15.90;10.70;;;10.50;99.90;;;;;;5068451;28;20906;-82
2023/03/20 06:27:44;;;;;;;13.90;9.80;;;10.50;99.90;;;;;;5076010;28;20486;-82
2023/03/20 06:30:12;;;;;;;17.40;11.17;;;10.50;99.90;;;;;;5076119;28;20495;-83
2023/03/20 06:32:39;;;;;;;17.13;12.10;;;10.50;99.90;;;;;;5066584;28;20458;-83
2023/03/20 06:35:06;;;;;;;14.60;11.53;;;10.50;99.90;;;;;;5070663;28;20495;-82
2023/03/20 06:37:33;;;;;;;17.40;12.50;;;10.60;99.90;;;;;;5061001;28;20456;-82
2023/03/20 06:40:00;;;;;;;16.63;12.13;;;10.70;99.90;;;;;;5068523;28;20475;-82
2023/03/20 06:42:27;;;;;;;16.67;10.97;;;10.70;99.90;;;;;;5075508;28;20447;-82
2023/03/20 06:44:53;;;;;;;14.40;11.10;;;10.80;99.90;;;;;;5077908;28;20837;-84
2023/03/20 06:47:20;;;;;;;15.00;10.80;;;10.80;99.90;;;;;;5079927;28;20453;-81
2023/03/20 06:49:53;;;;;;;18.00;11.73;;;10.80;99.90;;;;;;5081945;28;20471;-81
2023/03/20 06:52:34;;;;;;;13.70;10.60;;;10.80;99.90;;;;;;5070654;28;20462;-80
2023/03/20 06:55:01;;;;;;;12.23;9.73;;;10.80;99.90;;;;;;5075508;28;20934;-83
2023/03/20 06:57:27;;;;;;;15.90;9.70;;;10.90;99.90;;;;;;5074582;28;20451;-81
2023/03/20 06:59:54;;;;;;;18.70;9.03;;;10.90;99.70;;;;;;5077498;28;20517;-83
2023/03/20 07:02:21;;;;;;;12.80;8.20;;;10.80;99.80;;;;;;5076518;28;20947;-83
2023/03/20 07:04:48;;;;;;;14.97;9.87;;;10.80;99.70;;;;;;5080178;28;20484;-83
2023/03/20 07:07:16;;;;;;;14.17;9.87;;;10.80;99.80;;;;;;5079495;28;20451;-84
2023/03/20 07:09:42;;;;;;;13.10;9.57;;;10.90;99.80;;;;;;5069161;28;20514;-84
2023/03/20 07:12:13;;;;;;;11.60;9.30;;;10.80;99.70;;;;;;5069042;28;20456;-83
2023/03/20 07:14:41;;;;;;;13.73;9.57;;;10.90;99.70;;;;;;5068829;28;20479;-84
2023/03/20 07:17:09;;;;;;;14.47;10.90;;;11.00;99.60;;;;;;5059780;28;20506;-84
2023/03/20 07:19:36;;;;;;;13.37;8.77;;;11.10;99.50;;;;;;5073775;28;20498;-83
2023/03/20 07:22:06;;;;;;;16.13;9.63;;;11.20;99.40;;;;;;5073861;28;20543;-83
2023/03/20 07:24:33;;;;;;;16.07;10.33;;;11.30;99.00;;;;;;5066491;28;20504;-82
2023/03/20 07:27:00;;;;;;;10.80;8.50;;;11.40;98.90;;;;;;5072087;28;20448;-82
2023/03/20 07:29:27;;;;;;;12.67;9.57;;;11.60;98.40;;;;;;5078750;28;20550;-83
2023/03/20 07:31:53;;;;;;;11.20;9.00;;;11.60;97.90;;;;;;5067894;28;20989;-83
2023/03/20 07:34:21;;;;;;;13.40;9.17;;;11.70;97.80;;;;;;5065020;28;20449;-83
2023/03/20 07:36:47;;;;;;;11.80;8.60;;;12.00;97.50;;;;;;5072526;28;21087;-84
2023/03/20 07:39:14;;;;;;;16.00;9.20;;;12.10;96.40;;;;;;5069698;28;20946;-83
2023/03/20 07:41:41;;;;;;;9.27;6.50;;;11.80;96.50;;;;;;5071704;28;20463;-84
2023/03/20 07:44:09;;;;;;;8.60;7.23;;;11.60;96.70;;;;;;5080142;28;20487;-86
2023/03/20 07:49:23;;;;;;;10.47;7.13;;;11.60;96.80;;;;;;5010367;28;20494;-82
2023/03/20 07:51:50;;;;;;;10.33;7.27;;;11.60;96.40;;;;;;5005551;28;20447;-81
2023/03/20 07:54:17;;;;;;;7.10;5.73;;;11.50;96.30;;;;;;5009323;28;20504;-82
2023/03/20 07:56:43;;;;;;;7.93;6.70;;;11.40;96.60;;;;;;5004414;28;20458;-82
2023/03/20 07:59:11;;;;;;;8.80;6.90;;;11.50;96.10;;;;;;5006670;28;20544;-81
2023/03/20 08:01:39;;;;;;;8.03;6.60;;;11.20;96.30;;;;;;5008796;28;20462;-83
2023/03/20 08:04:06;;;;;;;9.67;6.17;;;11.10;96.70;;;;;;5007876;28;20446;-82
2023/03/20 08:06:33;;;;;;;9.93;6.50;;;11.00;96.80;;;;;;5000588;28;20470;-82
2023/03/20 08:09:00;;;;;;;7.30;5.70;;;11.00;96.90;;;;;;5003464;28;20489;-82
2023/03/20 08:11:27;;;;;;;9.33;7.20;;;11.20;96.80;;;;;;5012714;28;20474;-83
2023/03/20 08:13:55;;;;;;;8.40;6.50;;;11.10;96.80;;;;;;4998389;28;20444;-82
2023/03/20 08:16:22;;;;;;;13.53;6.90;;;11.00;96.80;;;;;;5019207;28;20462;-82
2023/03/20 08:18:49;;;;;;;10.57;6.40;;;11.00;96.70;;;;;;5020384;28;20451;-82
2023/03/20 08:21:16;;;;;;;7.80;5.90;;;11.20;96.60;;;;;;5005891;28;20466;-83
2023/03/20 08:23:43;;;;;;;8.83;5.20;;;11.20;96.30;;;;;;5014354;28;20529;-82
2023/03/20 08:26:10;;;;;;;7.00;5.57;;;11.50;95.80;;;;;;5024804;28;20475;-82
2023/03/20 08:28:36;;;;;;;7.80;5.93;;;11.40;95.50;;;;;;5004416;28;20459;-82
2023/03/20 08:31:14;;;;;;;9.60;6.50;;;11.40;95.70;;;;;;5006473;28;20489;-82
2023/03/20 08:33:41;;;;;;;14.17;6.17;;;11.60;95.90;;;;;;5014932;28;20456;-82
2023/03/20 08:36:08;;;;;;;7.10;5.30;;;11.50;95.30;;;;;;5011490;28;20466;-81
2023/03/20 08:38:35;;;;;;;9.40;5.73;;;11.60;95.20;;;;;;5017036;28;20511;-82
2023/03/20 08:41:02;;;;;;;5.63;5.03;;;11.90;94.20;;;;;;5007131;28;20508;-82
2023/03/20 08:43:28;;;;;;;5.47;4.40;;;11.60;94.20;;;;;;5011424;28;20553;-82
2023/03/20 08:45:55;;;;;;;6.57;5.20;;;11.40;94.40;;;;;;5013400;28;20576;-84
2023/03/20 08:48:22;;;;;;;7.67;5.37;;;11.40;94.60;;;;;;5016278;28;20464;-84
2023/03/20 08:50:49;;;;;;;6.27;5.47;;;11.40;95.00;;;;;;5013390;28;20510;-85
2023/03/20 08:53:16;;;;;;;6.40;5.27;;;11.60;94.40;;;;;;5011323;28;20534;-83
2023/03/20 08:55:50;;;;;;;8.23;5.87;;;11.70;94.10;;;;;;5007273;28;20455;-84
2023/03/20 08:58:17;;;;;;;7.93;5.43;;;11.70;94.30;;;;;;5010313;28;21352;-84
2023/03/20 09:00:46;;;;;;;6.70;5.50;;;11.70;94.00;;;;;;5020741;28;20906;-82
2023/03/20 09:03:15;;;;;;;6.80;5.40;;;11.90;93.80;;;;;;5011549;28;20465;-84
2023/03/20 09:05:50;;;;;;;5.80;5.30;;;11.90;93.70;;;;;;5014838;28;20481;-84
2023/03/20 09:08:18;;;;;;;6.53;5.27;;;11.80;93.60;;;;;;5018895;28;20865;-83
2023/03/20 09:10:47;;;;;;;6.93;5.20;;;12.00;93.20;;;;;;5009937;28;20475;-82
2023/03/20 09:13:17;;;;;;;5.93;5.33;;;11.80;93.10;;;;;;5014167;28;20505;-83
2023/03/20 09:15:53;;;;;;;6.83;5.87;;;11.90;93.30;;;;;;5029194;28;20447;-82
2023/03/20 09:18:20;;;;;;;6.07;5.47;;;11.80;93.20;;;;;;5008164;28;20454;-83
2023/03/20 09:20:48;;;;;;;9.10;7.10;;;11.80;93.30;;;;;;5014495;28;20483;-84
2023/03/20 09:23:15;;;;;;;6.60;5.67;;;11.80;93.40;;;;;;5012599;28;20844;-83
2023/03/20 09:25:42;;;;;;;7.63;6.27;;;12.10;92.90;;;;;;5017777;28;20482;-82
2023/03/20 09:28:09;;;;;;;9.30;7.03;;;12.10;92.90;;;;;;5003566;28;20459;-83
2023/03/20 09:30:36;;;;;;;6.67;5.97;;;12.00;92.80;;;;;;5007025;28;20479;-82
2023/03/20 09:33:04;;;;;;;10.07;6.67;;;11.90;92.60;;;;;;5008905;28;20935;-85
2023/03/20 09:35:31;;;;;;;9.80;6.90;;;11.80;92.60;;;;;;5021210;28;20483;-84
2023/03/20 09:37:57;;;;;;;7.27;6.00;;;11.90;92.60;;;;;;5009435;28;20466;-82
2023/03/20 09:40:37;;;;;;;7.00;6.27;;;12.00;92.60;;;;;;5021364;28;20493;-84
2023/03/20 09:43:42;;;;;;;7.80;6.17;;;11.90;92.50;;;;;;5006897;28;20984;-82
2023/03/20 09:46:26;;;;;;;11.63;8.40;;;11.90;92.50;;;;;;5030255;28;20498;-81
2023/03/20 09:49:11;;;;;;;11.87;6.90;;;11.90;92.50;;;;;;5023830;28;20466;-83
2023/03/20 09:52:01;;;;;;;9.10;6.67;;;12.00;92.60;;;;;;5006610;28;20451;-83
2023/03/20 09:54:39;;;;;;;8.90;6.90;;;12.10;92.40;;;;;;5008306;28;20446;-84
2023/03/20 09:57:26;;;;;;;8.90;6.47;;;12.10;92.20;;;;;;5004733;28;20459;-83
2023/03/20 09:59:58;;;;;;;9.17;6.13;;;12.50;91.10;;;;;;5007226;28;20461;-83
2023/03/20 10:02:39;;;;;;;7.70;6.37;;;12.20;91.40;;;;;;5004064;28;20474;-82
2023/03/20 10:05:18;;;;;;;11.70;6.10;;;12.10;91.40;;;;;;5010666;28;20482;-83
2023/03/20 10:07:45;;;;;;;9.10;5.90;;;12.00;91.20;;;;;;5004261;28;20449;-82
2023/03/20 10:10:15;;;;;;;6.47;5.10;;;11.90;91.40;;;;;;5003722;28;20473;-84
2023/03/20 10:12:47;;;;;;;9.33;7.03;;;11.90;91.40;;;;;;5006452;28;20584;-83
2023/03/20 10:15:40;;;;;;;7.07;5.80;;;11.80;91.40;;;;;;5003220;28;20463;-83
2023/03/20 10:18:27;;;;;;;9.40;5.60;;;12.00;91.90;;;;;;5000362;28;21010;-84
2023/03/20 10:21:06;;;;;;;9.90;5.97;;;12.00;91.20;;;;;;5008813;28;20557;-81
2023/03/20 10:23:44;;;;;;;7.90;5.53;;;12.00;91.30;;;;;;5004479;28;21006;-83
2023/03/20 10:26:17;;;;;;;8.30;5.37;;;12.10;91.10;;;;;;5012358;28;20550;-83
2023/03/20 10:28:56;;;;;;;5.30;4.73;;;12.10;90.70;;;;;;5006788;28;20439;-84
2023/03/20 10:31:47;;;;;;;6.60;4.13;;;12.50;90.70;;;;;;5005868;28;20506;-84
2023/03/20 10:34:32;;;;;;;6.53;4.43;;;12.80;89.60;;;;;;5008660;28;21929;-84
2023/03/20 10:37:33;;;;;;;9.43;4.30;;;12.60;87.80;;;;;;5022146;28;20570;-83
2023/03/20 10:40:18;;;;;;;5.10;3.20;;;12.40;86.90;;;;;;5004441;28;20481;-84
2023/03/20 10:42:48;;;;;;;5.10;2.63;;;12.30;85.50;;;;;;5007803;28;20462;-85
2023/03/20 10:45:53;;;;;;;4.17;2.30;;;12.20;83.70;;;;;;5009058;28;21319;-84
2023/03/20 10:48:26;;;;;;;2.97;2.67;;;12.20;83.30;;;;;;5011552;28;20450;-82
2023/03/20 10:51:01;;;;;;;4.93;2.17;;;12.10;82.00;;;;;;5012312;28;21024;-83
2023/03/20 10:53:51;;;;;;;3.53;2.20;;;12.10;80.90;;;;;;5008550;28;20459;-82
2023/03/20 10:56:32;;;;;;;3.90;2.37;;;12.30;79.90;;;;;;5011953;28;20455;-86
2023/03/20 10:59:29;;;;;;;3.70;2.47;;;12.40;79.50;;;;;;5012413;28;20518;-83
2023/03/20 11:02:02;;;;;;;5.83;4.00;;;12.30;79.40;;;;;;5009729;28;20498;-84
2023/03/20 11:04:39;;;;;;;3.43;2.40;;;12.10;79.50;;;;;;5011437;28;20450;-82
2023/03/20 11:07:42;;;;;;;4.20;1.97;;;12.00;80.40;;;;;;5014254;28;20446;-81
2023/03/20 11:10:15;;;;;;;3.93;2.63;;;12.00;81.20;;;;;;5103998;22;20486;-83
2023/03/20 11:12:48;;;;;;;3.83;2.60;;;12.40;79.40;;;;;;5062973;28;20485;-83
2023/03/20 11:15:22;;;;;;;4.63;2.90;;;12.20;79.20;;;;;;5060711;28;20474;-83
2023/03/20 11:17:57;;;;;;;7.73;3.20;;;12.20;80.10;;;;;;5062467;28;20441;-83
2023/03/20 11:20:31;;;;;;;5.87;3.50;;;12.10;80.10;;;;;;5059352;28;20485;-83
2023/03/20 11:23:01;;;;;;;5.50;3.20;;;12.00;81.00;;;;;;5056086;28;20429;-81
2023/03/20 11:25:39;;;;;;;6.10;3.20;;;12.00;81.50;;;;;;5060913;28;20496;-82
2023/03/20 11:28:29;;;;;;;8.03;3.60;;;12.00;82.10;;;;;;5058230;28;20482;-82
2023/03/20 11:31:24;;;;;;;4.23;2.90;;;12.20;82.50;;;;;;5043702;28;20479;-81
2023/03/20 11:34:19;;;;;;;6.03;2.83;;;12.10;81.10;;;;;;5035670;28;20472;-81
2023/03/20 11:36:58;;;;;;;6.63;3.30;;;12.10;81.20;;;;;;5036028;28;20928;-83
2023/03/20 11:39:36;;;;;;;3.80;2.93;;;12.00;81.70;;;;;;5051314;28;20524;-84
2023/03/20 11:42:20;;;;;;;3.73;2.83;;;12.00;82.20;;;;;;5053142;28;20467;-85
2023/03/20 11:44:56;;;;;;;5.30;3.30;;;12.00;82.50;;;;;;5040748;28;20429;-84
2023/03/20 11:47:26;;;;;;;5.33;2.67;;;11.90;82.50;;;;;;5049998;28;20467;-85
2023/03/20 11:49:58;;;;;;;5.27;2.60;;;11.90;82.60;;;;;;5045544;28;20473;-85
2023/03/20 11:52:34;;;;;;;4.00;2.50;;;12.00;82.60;;;;;;5042833;28;20523;-84
2023/03/20 11:55:05;;;;;;;2.93;2.27;;;12.10;83.10;;;;;;5050829;28;20431;-84
2023/03/20 11:57:40;;;;;;;4.50;2.50;;;12.10;84.10;;;;;;5052843;28;20548;-83
2023/03/20 12:00:11;;;;;;;5.30;3.00;;;12.10;85.60;;;;;;5054246;28;20477;-84
2023/03/20 12:02:40;;;;;;;5.27;2.83;;;12.00;83.90;;;;;;5052664;28;20433;-83
2023/03/20 12:05:38;;;;;;;4.73;2.60;;;12.00;85.10;;;;;;5053426;28;20485;-82
2023/03/20 12:08:28;;;;;;;6.60;2.83;;;12.00;83.90;;;;;;5041868;28;20461;-83
2023/03/20 12:11:05;;;;;;;6.10;3.20;;;12.00;83.40;;;;;;5042353;28;20464;-83
2023/03/20 12:13:36;;;;;;;5.00;2.77;;;12.00;83.20;;;;;;5039731;28;20468;-84
2023/03/20 12:16:14;;;;;;;5.70;2.40;;;12.30;83.00;;;;;;5019261;28;20458;-84
2023/03/20 12:18:46;;;;;;;4.63;3.30;;;12.20;82.00;;;;;;5017492;28;20458;-84
2023/03/20 12:21:19;;;;;;;4.83;2.17;;;12.30;82.60;;;;;;5019758;28;20501;-84
2023/03/20 12:24:00;;;;;;;2.40;2.20;;;12.30;82.50;;;;;;5022996;28;20462;-84
2023/03/20 12:26:47;;;;;;;6.67;2.53;;;12.30;82.50;;;;;;5033037;28;20482;-84
2023/03/20 12:29:31;;;;;;;4.33;3.00;;;12.40;83.50;;;;;;5031834;28;21199;-84
2023/03/20 12:32:03;;;;;;;4.30;3.30;;;12.40;84.60;;;;;;5032253;28;20520;-84
2023/03/20 12:34:40;;;;;;;7.63;2.97;;;12.40;83.90;;;;;;5035500;28;20458;-84
2023/03/20 12:37:12;;;;;;;6.53;4.07;;;12.40;83.90;;;;;;5030622;28;20470;-82
2023/03/20 12:39:47;;;;;;;3.80;3.50;;;12.30;84.40;;;;;;5028604;28;20496;-83
2023/03/20 12:42:52;;;;;;;4.60;3.63;;;12.30;84.50;;;;;;5035445;28;20450;-85
2023/03/20 12:45:22;;;;;;;4.80;2.80;;;12.30;84.10;;;;;;5021457;28;20441;-82
2023/03/20 12:48:18;;;;;;;4.37;2.67;;;12.20;84.60;;;;;;5014685;28;20765;-81
2023/03/20 12:51:18;;;;;;;5.17;2.37;;;12.30;85.10;;;;;;5015100;28;20471;-81
2023/03/20 12:54:20;;;;;;;2.57;1.80;;;12.20;85.30;;;;;;5019837;28;20453;-82
2023/03/20 12:57:16;;;;;;;3.27;2.17;;;12.20;85.10;;;;;;5019134;28;20533;-82
2023/03/20 12:59:54;;;;;;;2.93;2.00;;;12.10;85.40;;;;;;5009242;28;20474;-83
2023/03/20 13:03:00;;;;;;;4.20;2.50;;;12.10;86.70;;;;;;5020977;28;20470;-82
2023/03/20 13:05:53;;;;;;;2.83;2.10;;;12.10;86.60;;;;;;5013389;28;20601;-82
2023/03/20 13:08:32;;;;;;;4.03;2.17;;;12.20;87.40;;;;;;5022553;28;20446;-81
2023/03/20 13:11:08;;;;;;;4.17;3.00;;;12.40;88.50;;;;;;5017323;28;20473;-83